sensor_id;sensor_type;location;lat;lon;timestamp;P1;durP1;ratioP1;P2;durP2;ratioP2
28166;SDS011;15455;53.376;-6.262;2022-07-03T00:00:21;1.38;;;0.93;;
28166;SDS011;15455;53.376;-6.262;2022-07-03T00:03:06;4.30;;;1.35;;
28166;SDS011;15455;53.376;-6.262;2022-07-03T00:05:52;4.13;;;1.00;;
28166;SDS011;15455;53.376;-6.262;2022-07-03T00:08:37;3.90;;;1.33;;
28166;SDS011;15455;53.376;-6.262;2022-07-03T00:11:23;0.93;;;0.90;;
28166;SDS011;15455;53.376;-6.262;2022-07-03T00:14:10;3.00;;;1.05;;
28166;SDS011;15455;53.376;-6.262;2022-07-03T00:16:55;4.68;;;1.00;;
28166;SDS011;15455;53.376;-6.262;2022-07-03T00:19:42;1.42;;;0.82;;
28166;SDS011;15455;53.376;-6.262;2022-07-03T00:22:27;3.45;;;1.15;;
28166;SDS011;15455;53.376;-6.262;2022-07-03T00:25:15;6.45;;;1.15;;
28166;SDS011;15455;53.376;-6.262;2022-07-03T00:28:01;4.43;;;0.98;;
28166;SDS011;15455;53.376;-6.262;2022-07-03T00:30:47;3.60;;;1.00;;
28166;SDS011;15455;53.376;-6.262;2022-07-03T00:33:33;1.92;;;0.77;;
28166;SDS011;15455;53.376;-6.262;2022-07-03T00:36:21;3.90;;;1.15;;
28166;SDS011;15455;53.376;-6.262;2022-07-03T00:39:07;2.83;;;0.88;;
28166;SDS011;15455;53.376;-6.262;2022-07-03T00:42:00;1.75;;;1.27;;
28166;SDS011;15455;53.376;-6.262;2022-07-03T00:44:47;2.05;;;1.15;;
28166;SDS011;15455;53.376;-6.262;2022-07-03T00:47:36;2.55;;;1.20;;
28166;SDS011;15455;53.376;-6.262;2022-07-03T00:50:27;3.30;;;1.42;;
28166;SDS011;15455;53.376;-6.262;2022-07-03T00:53:29;3.30;;;1.13;;
28166;SDS011;15455;53.376;-6.262;2022-07-03T00:56:19;4.93;;;1.30;;
28166;SDS011;15455;53.376;-6.262;2022-07-03T00:59:08;3.97;;;1.02;;
28166;SDS011;15455;53.376;-6.262;2022-07-03T01:01:58;3.13;;;0.93;;
28166;SDS011;15455;53.376;-6.262;2022-07-03T01:10:49;9.23;;;1.10;;
28166;SDS011;15455;53.376;-6.262;2022-07-03T01:19:43;4.97;;;1.30;;
28166;SDS011;15455;53.376;-6.262;2022-07-03T01:25:39;4.30;;;1.13;;
28166;SDS011;15455;53.376;-6.262;2022-07-03T01:28:32;5.10;;;0.82;;
28166;SDS011;15455;53.376;-6.262;2022-07-03T01:31:19;3.28;;;1.25;;
28166;SDS011;15455;53.376;-6.262;2022-07-03T01:34:12;3.10;;;1.70;;
28166;SDS011;15455;53.376;-6.262;2022-07-03T01:37:01;1.23;;;0.95;;
28166;SDS011;15455;53.376;-6.262;2022-07-03T01:39:49;1.90;;;0.90;;
28166;SDS011;15455;53.376;-6.262;2022-07-03T01:42:40;4.20;;;1.48;;
28166;SDS011;15455;53.376;-6.262;2022-07-03T01:45:27;6.68;;;1.10;;
28166;SDS011;15455;53.376;-6.262;2022-07-03T01:48:14;4.07;;;1.00;;
28166;SDS011;15455;53.376;-6.262;2022-07-03T01:51:00;5.00;;;1.58;;
28166;SDS011;15455;53.376;-6.262;2022-07-03T01:53:47;5.57;;;1.67;;
28166;SDS011;15455;53.376;-6.262;2022-07-03T01:56:34;2.03;;;1.10;;
28166;SDS011;15455;53.376;-6.262;2022-07-03T01:59:20;4.03;;;1.42;;
28166;SDS011;15455;53.376;-6.262;2022-07-03T02:02:14;4.93;;;1.88;;
28166;SDS011;15455;53.376;-6.262;2022-07-03T02:05:09;1.83;;;1.23;;
28166;SDS011;15455;53.376;-6.262;2022-07-03T02:11:19;10.10;;;1.55;;
28166;SDS011;15455;53.376;-6.262;2022-07-03T02:14:13;9.32;;;1.60;;
28166;SDS011;15455;53.376;-6.262;2022-07-03T02:17:13;6.05;;;1.58;;
28166;SDS011;15455;53.376;-6.262;2022-07-03T02:20:03;4.65;;;1.27;;
28166;SDS011;15455;53.376;-6.262;2022-07-03T02:22:56;4.28;;;1.45;;
28166;SDS011;15455;53.376;-6.262;2022-07-03T02:25:44;6.18;;;1.48;;
28166;SDS011;15455;53.376;-6.262;2022-07-03T02:28:54;3.75;;;1.10;;
28166;SDS011;15455;53.376;-6.262;2022-07-03T02:31:44;2.90;;;1.65;;
28166;SDS011;15455;53.376;-6.262;2022-07-03T02:34:32;5.40;;;1.77;;
28166;SDS011;15455;53.376;-6.262;2022-07-03T02:37:20;2.85;;;1.48;;
28166;SDS011;15455;53.376;-6.262;2022-07-03T02:40:14;7.35;;;1.60;;
28166;SDS011;15455;53.376;-6.262;2022-07-03T02:46:14;4.93;;;1.70;;
28166;SDS011;15455;53.376;-6.262;2022-07-03T03:07:08;8.27;;;2.10;;
28166;SDS011;15455;53.376;-6.262;2022-07-03T03:09:58;9.90;;;1.55;;
28166;SDS011;15455;53.376;-6.262;2022-07-03T03:12:44;8.95;;;2.05;;
28166;SDS011;15455;53.376;-6.262;2022-07-03T03:15:33;3.92;;;1.67;;
28166;SDS011;15455;53.376;-6.262;2022-07-03T03:18:21;2.67;;;1.48;;
28166;SDS011;15455;53.376;-6.262;2022-07-03T03:21:12;7.35;;;2.20;;
28166;SDS011;15455;53.376;-6.262;2022-07-03T03:24:02;4.45;;;2.20;;
28166;SDS011;15455;53.376;-6.262;2022-07-03T03:26:48;10.38;;;2.20;;
28166;SDS011;15455;53.376;-6.262;2022-07-03T03:29:34;7.13;;;1.98;;
28166;SDS011;15455;53.376;-6.262;2022-07-03T03:32:20;5.35;;;2.05;;
28166;SDS011;15455;53.376;-6.262;2022-07-03T03:35:07;4.45;;;2.45;;
28166;SDS011;15455;53.376;-6.262;2022-07-03T03:37:53;5.45;;;2.30;;
28166;SDS011;15455;53.376;-6.262;2022-07-03T03:40:38;2.38;;;2.08;;
28166;SDS011;15455;53.376;-6.262;2022-07-03T03:43:24;5.20;;;1.88;;
28166;SDS011;15455;53.376;-6.262;2022-07-03T03:46:10;8.38;;;2.25;;
28166;SDS011;15455;53.376;-6.262;2022-07-03T03:48:56;2.83;;;1.80;;
28166;SDS011;15455;53.376;-6.262;2022-07-03T03:51:42;3.00;;;1.25;;
28166;SDS011;15455;53.376;-6.262;2022-07-03T03:54:27;7.80;;;2.13;;
28166;SDS011;15455;53.376;-6.262;2022-07-03T03:57:20;6.05;;;2.25;;
28166;SDS011;15455;53.376;-6.262;2022-07-03T04:00:09;11.25;;;1.85;;
28166;SDS011;15455;53.376;-6.262;2022-07-03T04:02:59;7.10;;;1.90;;
28166;SDS011;15455;53.376;-6.262;2022-07-03T04:05:44;7.05;;;2.03;;
28166;SDS011;15455;53.376;-6.262;2022-07-03T04:08:30;4.03;;;1.48;;
28166;SDS011;15455;53.376;-6.262;2022-07-03T04:11:16;6.32;;;1.67;;
28166;SDS011;15455;53.376;-6.262;2022-07-03T04:14:01;9.20;;;1.80;;
28166;SDS011;15455;53.376;-6.262;2022-07-03T04:16:46;3.70;;;1.52;;
28166;SDS011;15455;53.376;-6.262;2022-07-03T04:19:32;6.35;;;1.38;;
28166;SDS011;15455;53.376;-6.262;2022-07-03T04:22:17;6.32;;;1.63;;
28166;SDS011;15455;53.376;-6.262;2022-07-03T04:25:02;10.60;;;1.77;;
28166;SDS011;15455;53.376;-6.262;2022-07-03T04:27:48;5.47;;;1.50;;
28166;SDS011;15455;53.376;-6.262;2022-07-03T04:30:53;6.22;;;1.92;;
28166;SDS011;15455;53.376;-6.262;2022-07-03T04:33:39;5.95;;;1.80;;
28166;SDS011;15455;53.376;-6.262;2022-07-03T04:36:32;6.60;;;1.60;;
28166;SDS011;15455;53.376;-6.262;2022-07-03T04:39:17;4.35;;;1.38;;
28166;SDS011;15455;53.376;-6.262;2022-07-03T04:42:03;3.92;;;1.73;;
28166;SDS011;15455;53.376;-6.262;2022-07-03T04:44:48;2.25;;;1.45;;
28166;SDS011;15455;53.376;-6.262;2022-07-03T04:47:34;9.52;;;1.60;;
28166;SDS011;15455;53.376;-6.262;2022-07-03T04:50:19;3.40;;;1.35;;
28166;SDS011;15455;53.376;-6.262;2022-07-03T04:53:05;4.80;;;1.38;;
28166;SDS011;15455;53.376;-6.262;2022-07-03T04:55:51;6.88;;;1.65;;
28166;SDS011;15455;53.376;-6.262;2022-07-03T04:58:37;3.97;;;1.58;;
28166;SDS011;15455;53.376;-6.262;2022-07-03T05:01:23;7.00;;;2.15;;
28166;SDS011;15455;53.376;-6.262;2022-07-03T05:04:09;5.30;;;1.83;;
28166;SDS011;15455;53.376;-6.262;2022-07-03T05:06:54;6.05;;;1.60;;
28166;SDS011;15455;53.376;-6.262;2022-07-03T05:09:40;6.70;;;1.75;;
28166;SDS011;15455;53.376;-6.262;2022-07-03T05:12:26;8.60;;;1.65;;
28166;SDS011;15455;53.376;-6.262;2022-07-03T05:15:12;7.10;;;1.55;;
28166;SDS011;15455;53.376;-6.262;2022-07-03T05:17:57;6.63;;;2.05;;
28166;SDS011;15455;53.376;-6.262;2022-07-03T05:20:43;5.15;;;1.50;;
28166;SDS011;15455;53.376;-6.262;2022-07-03T05:23:28;11.60;;;2.28;;
28166;SDS011;15455;53.376;-6.262;2022-07-03T05:26:14;4.85;;;1.35;;
28166;SDS011;15455;53.376;-6.262;2022-07-03T05:28:59;11.82;;;1.98;;
28166;SDS011;15455;53.376;-6.262;2022-07-03T05:31:45;16.55;;;2.17;;
28166;SDS011;15455;53.376;-6.262;2022-07-03T05:34:30;11.32;;;1.67;;
28166;SDS011;15455;53.376;-6.262;2022-07-03T05:37:15;7.65;;;1.73;;
28166;SDS011;15455;53.376;-6.262;2022-07-03T05:40:00;5.85;;;1.75;;
28166;SDS011;15455;53.376;-6.262;2022-07-03T05:42:46;4.45;;;1.08;;
28166;SDS011;15455;53.376;-6.262;2022-07-03T05:45:32;9.48;;;1.98;;
28166;SDS011;15455;53.376;-6.262;2022-07-03T05:48:18;5.45;;;1.30;;
28166;SDS011;15455;53.376;-6.262;2022-07-03T05:51:03;5.20;;;1.42;;
28166;SDS011;15455;53.376;-6.262;2022-07-03T05:53:49;5.45;;;1.05;;
28166;SDS011;15455;53.376;-6.262;2022-07-03T05:56:34;2.78;;;1.65;;
28166;SDS011;15455;53.376;-6.262;2022-07-03T05:59:22;10.00;;;1.27;;
28166;SDS011;15455;53.376;-6.262;2022-07-03T06:02:10;3.60;;;1.23;;
28166;SDS011;15455;53.376;-6.262;2022-07-03T06:04:56;11.75;;;1.20;;
28166;SDS011;15455;53.376;-6.262;2022-07-03T06:07:41;4.93;;;1.25;;
28166;SDS011;15455;53.376;-6.262;2022-07-03T06:10:27;4.15;;;1.48;;
28166;SDS011;15455;53.376;-6.262;2022-07-03T06:13:13;2.67;;;1.20;;
28166;SDS011;15455;53.376;-6.262;2022-07-03T06:15:59;2.38;;;0.98;;
28166;SDS011;15455;53.376;-6.262;2022-07-03T06:18:45;2.47;;;0.90;;
28166;SDS011;15455;53.376;-6.262;2022-07-03T06:21:31;2.58;;;0.95;;
28166;SDS011;15455;53.376;-6.262;2022-07-03T06:24:16;3.80;;;0.90;;
28166;SDS011;15455;53.376;-6.262;2022-07-03T06:27:02;2.53;;;0.80;;
28166;SDS011;15455;53.376;-6.262;2022-07-03T06:29:49;1.50;;;0.73;;
28166;SDS011;15455;53.376;-6.262;2022-07-03T06:32:34;4.30;;;0.90;;
28166;SDS011;15455;53.376;-6.262;2022-07-03T06:35:19;5.63;;;1.40;;
28166;SDS011;15455;53.376;-6.262;2022-07-03T06:38:09;5.53;;;1.05;;
28166;SDS011;15455;53.376;-6.262;2022-07-03T06:40:55;2.55;;;0.70;;
28166;SDS011;15455;53.376;-6.262;2022-07-03T06:43:40;4.32;;;1.23;;
28166;SDS011;15455;53.376;-6.262;2022-07-03T06:46:26;5.25;;;1.05;;
28166;SDS011;15455;53.376;-6.262;2022-07-03T06:49:11;1.65;;;1.02;;
28166;SDS011;15455;53.376;-6.262;2022-07-03T06:51:57;10.57;;;1.58;;
28166;SDS011;15455;53.376;-6.262;2022-07-03T06:54:42;2.05;;;0.90;;
28166;SDS011;15455;53.376;-6.262;2022-07-03T06:57:28;5.63;;;0.90;;
28166;SDS011;15455;53.376;-6.262;2022-07-03T07:00:14;3.00;;;0.80;;
28166;SDS011;15455;53.376;-6.262;2022-07-03T07:03:00;2.05;;;0.60;;
28166;SDS011;15455;53.376;-6.262;2022-07-03T07:05:45;4.30;;;0.93;;
28166;SDS011;15455;53.376;-6.262;2022-07-03T07:08:31;5.53;;;1.08;;
28166;SDS011;15455;53.376;-6.262;2022-07-03T07:11:16;1.75;;;0.70;;
28166;SDS011;15455;53.376;-6.262;2022-07-03T07:14:02;1.80;;;0.65;;
28166;SDS011;15455;53.376;-6.262;2022-07-03T07:16:47;2.67;;;0.68;;
28166;SDS011;15455;53.376;-6.262;2022-07-03T07:19:33;4.82;;;0.90;;
28166;SDS011;15455;53.376;-6.262;2022-07-03T07:22:19;3.80;;;0.52;;
28166;SDS011;15455;53.376;-6.262;2022-07-03T07:25:04;2.05;;;0.40;;
28166;SDS011;15455;53.376;-6.262;2022-07-03T07:27:50;0.63;;;0.60;;
28166;SDS011;15455;53.376;-6.262;2022-07-03T07:30:36;2.42;;;0.40;;
28166;SDS011;15455;53.376;-6.262;2022-07-03T07:33:23;0.70;;;0.32;;
28166;SDS011;15455;53.376;-6.262;2022-07-03T07:36:09;2.45;;;1.10;;
28166;SDS011;15455;53.376;-6.262;2022-07-03T07:38:54;1.17;;;0.60;;
28166;SDS011;15455;53.376;-6.262;2022-07-03T07:41:40;1.15;;;0.40;;
28166;SDS011;15455;53.376;-6.262;2022-07-03T07:44:26;2.33;;;0.50;;
28166;SDS011;15455;53.376;-6.262;2022-07-03T07:47:11;5.15;;;0.60;;
28166;SDS011;15455;53.376;-6.262;2022-07-03T07:49:57;2.83;;;0.63;;
28166;SDS011;15455;53.376;-6.262;2022-07-03T07:52:42;1.60;;;0.28;;
28166;SDS011;15455;53.376;-6.262;2022-07-03T07:55:27;3.95;;;0.38;;
28166;SDS011;15455;53.376;-6.262;2022-07-03T07:58:13;1.67;;;0.40;;
28166;SDS011;15455;53.376;-6.262;2022-07-03T08:00:58;1.65;;;0.43;;
28166;SDS011;15455;53.376;-6.262;2022-07-03T08:04:02;0.70;;;0.35;;
28166;SDS011;15455;53.376;-6.262;2022-07-03T08:07:07;0.45;;;0.40;;
28166;SDS011;15455;53.376;-6.262;2022-07-03T08:09:52;1.17;;;0.25;;
28166;SDS011;15455;53.376;-6.262;2022-07-03T08:12:38;2.42;;;0.50;;
28166;SDS011;15455;53.376;-6.262;2022-07-03T08:15:25;0.52;;;0.25;;
28166;SDS011;15455;53.376;-6.262;2022-07-03T08:18:11;2.13;;;0.50;;
28166;SDS011;15455;53.376;-6.262;2022-07-03T08:20:56;0.38;;;0.28;;
28166;SDS011;15455;53.376;-6.262;2022-07-03T08:23:41;5.40;;;1.08;;
28166;SDS011;15455;53.376;-6.262;2022-07-03T08:26:27;0.98;;;0.40;;
28166;SDS011;15455;53.376;-6.262;2022-07-03T08:29:13;3.30;;;0.45;;
28166;SDS011;15455;53.376;-6.262;2022-07-03T08:31:59;4.68;;;0.52;;
28166;SDS011;15455;53.376;-6.262;2022-07-03T08:34:44;0.28;;;0.28;;
28166;SDS011;15455;53.376;-6.262;2022-07-03T08:37:30;2.20;;;1.13;;
28166;SDS011;15455;53.376;-6.262;2022-07-03T08:40:17;3.30;;;0.70;;
28166;SDS011;15455;53.376;-6.262;2022-07-03T08:43:03;4.75;;;0.63;;
28166;SDS011;15455;53.376;-6.262;2022-07-03T08:45:49;1.27;;;0.20;;
28166;SDS011;15455;53.376;-6.262;2022-07-03T08:48:35;0.30;;;0.30;;
28166;SDS011;15455;53.376;-6.262;2022-07-03T08:51:22;0.50;;;0.32;;
28166;SDS011;15455;53.376;-6.262;2022-07-03T08:54:09;0.90;;;0.40;;
28166;SDS011;15455;53.376;-6.262;2022-07-03T08:56:56;6.07;;;0.63;;
28166;SDS011;15455;53.376;-6.262;2022-07-03T08:59:42;1.92;;;0.43;;
28166;SDS011;15455;53.376;-6.262;2022-07-03T09:02:31;0.88;;;0.50;;
28166;SDS011;15455;53.376;-6.262;2022-07-03T09:05:19;2.17;;;0.32;;
28166;SDS011;15455;53.376;-6.262;2022-07-03T09:08:08;1.40;;;0.65;;
28166;SDS011;15455;53.376;-6.262;2022-07-03T09:10:55;0.32;;;0.30;;
28166;SDS011;15455;53.376;-6.262;2022-07-03T09:13:40;0.80;;;0.40;;
28166;SDS011;15455;53.376;-6.262;2022-07-03T09:16:26;5.25;;;1.20;;
28166;SDS011;15455;53.376;-6.262;2022-07-03T09:19:12;2.70;;;0.50;;
28166;SDS011;15455;53.376;-6.262;2022-07-03T09:21:57;1.80;;;0.38;;
28166;SDS011;15455;53.376;-6.262;2022-07-03T09:24:42;1.55;;;0.30;;
28166;SDS011;15455;53.376;-6.262;2022-07-03T09:27:28;0.40;;;0.40;;
28166;SDS011;15455;53.376;-6.262;2022-07-03T09:30:14;2.05;;;0.32;;
28166;SDS011;15455;53.376;-6.262;2022-07-03T09:33:00;2.75;;;0.60;;
28166;SDS011;15455;53.376;-6.262;2022-07-03T09:35:46;0.93;;;0.32;;
28166;SDS011;15455;53.376;-6.262;2022-07-03T09:38:43;4.75;;;0.75;;
28166;SDS011;15455;53.376;-6.262;2022-07-03T09:41:30;5.13;;;0.30;;
28166;SDS011;15455;53.376;-6.262;2022-07-03T09:44:42;1.63;;;0.40;;
28166;SDS011;15455;53.376;-6.262;2022-07-03T09:47:33;3.95;;;0.40;;
28166;SDS011;15455;53.376;-6.262;2022-07-03T09:50:26;3.08;;;0.80;;
28166;SDS011;15455;53.376;-6.262;2022-07-03T09:53:15;4.60;;;0.73;;
28166;SDS011;15455;53.376;-6.262;2022-07-03T09:56:00;1.38;;;0.50;;
28166;SDS011;15455;53.376;-6.262;2022-07-03T10:01:47;2.30;;;0.22;;
28166;SDS011;15455;53.376;-6.262;2022-07-03T10:04:33;1.85;;;0.20;;
28166;SDS011;15455;53.376;-6.262;2022-07-03T10:07:19;1.30;;;0.30;;
28166;SDS011;15455;53.376;-6.262;2022-07-03T10:10:05;0.17;;;0.10;;
28166;SDS011;15455;53.376;-6.262;2022-07-03T10:12:51;0.52;;;0.10;;
28166;SDS011;15455;53.376;-6.262;2022-07-03T10:15:38;4.45;;;0.30;;
28166;SDS011;15455;53.376;-6.262;2022-07-03T10:18:27;4.28;;;0.50;;
28166;SDS011;15455;53.376;-6.262;2022-07-03T10:21:15;3.22;;;0.63;;
28166;SDS011;15455;53.376;-6.262;2022-07-03T10:24:01;3.63;;;0.50;;
28166;SDS011;15455;53.376;-6.262;2022-07-03T10:26:48;2.15;;;0.50;;
28166;SDS011;15455;53.376;-6.262;2022-07-03T10:29:34;3.53;;;0.38;;
28166;SDS011;15455;53.376;-6.262;2022-07-03T10:32:22;1.48;;;0.30;;
28166;SDS011;15455;53.376;-6.262;2022-07-03T10:35:08;1.73;;;0.40;;
28166;SDS011;15455;53.376;-6.262;2022-07-03T10:37:56;0.57;;;0.25;;
28166;SDS011;15455;53.376;-6.262;2022-07-03T10:44:18;3.78;;;0.50;;
28166;SDS011;15455;53.376;-6.262;2022-07-03T10:47:36;1.15;;;0.70;;
28166;SDS011;15455;53.376;-6.262;2022-07-03T10:50:34;3.50;;;0.52;;
28166;SDS011;15455;53.376;-6.262;2022-07-03T10:53:22;2.10;;;0.50;;
28166;SDS011;15455;53.376;-6.262;2022-07-03T10:56:08;2.25;;;0.35;;
28166;SDS011;15455;53.376;-6.262;2022-07-03T10:58:55;2.55;;;0.60;;
28166;SDS011;15455;53.376;-6.262;2022-07-03T11:01:41;1.45;;;0.40;;
28166;SDS011;15455;53.376;-6.262;2022-07-03T11:04:27;1.02;;;0.32;;
28166;SDS011;15455;53.376;-6.262;2022-07-03T11:10:39;2.63;;;0.50;;
28166;SDS011;15455;53.376;-6.262;2022-07-03T11:13:26;2.88;;;0.30;;
28166;SDS011;15455;53.376;-6.262;2022-07-03T11:16:21;0.47;;;0.43;;
28166;SDS011;15455;53.376;-6.262;2022-07-03T11:19:14;1.45;;;0.40;;
28166;SDS011;15455;53.376;-6.262;2022-07-03T11:22:00;4.78;;;0.50;;
28166;SDS011;15455;53.376;-6.262;2022-07-03T11:24:55;0.68;;;0.22;;
28166;SDS011;15455;53.376;-6.262;2022-07-03T11:27:41;0.93;;;0.32;;
28166;SDS011;15455;53.376;-6.262;2022-07-03T11:30:27;1.23;;;0.30;;
28166;SDS011;15455;53.376;-6.262;2022-07-03T11:33:14;0.22;;;0.17;;
28166;SDS011;15455;53.376;-6.262;2022-07-03T11:36:33;0.75;;;0.20;;
28166;SDS011;15455;53.376;-6.262;2022-07-03T11:39:19;3.35;;;0.30;;
28166;SDS011;15455;53.376;-6.262;2022-07-03T11:42:05;0.68;;;0.20;;
28166;SDS011;15455;53.376;-6.262;2022-07-03T11:44:50;0.47;;;0.30;;
28166;SDS011;15455;53.376;-6.262;2022-07-03T11:47:36;1.67;;;0.30;;
28166;SDS011;15455;53.376;-6.262;2022-07-03T11:50:36;0.95;;;0.20;;
28166;SDS011;15455;53.376;-6.262;2022-07-03T11:53:27;2.78;;;0.40;;
28166;SDS011;15455;53.376;-6.262;2022-07-03T11:56:15;2.72;;;0.90;;
28166;SDS011;15455;53.376;-6.262;2022-07-03T11:59:01;1.98;;;0.50;;
28166;SDS011;15455;53.376;-6.262;2022-07-03T12:01:49;1.38;;;0.47;;
28166;SDS011;15455;53.376;-6.262;2022-07-03T12:04:35;3.72;;;0.40;;
28166;SDS011;15455;53.376;-6.262;2022-07-03T12:07:21;3.95;;;0.35;;
28166;SDS011;15455;53.376;-6.262;2022-07-03T12:10:06;2.08;;;0.50;;
28166;SDS011;15455;53.376;-6.262;2022-07-03T12:12:53;2.03;;;0.30;;
28166;SDS011;15455;53.376;-6.262;2022-07-03T12:15:38;2.50;;;0.57;;
28166;SDS011;15455;53.376;-6.262;2022-07-03T12:18:24;1.00;;;0.38;;
28166;SDS011;15455;53.376;-6.262;2022-07-03T12:21:09;2.80;;;0.47;;
28166;SDS011;15455;53.376;-6.262;2022-07-03T12:23:55;2.35;;;0.40;;
28166;SDS011;15455;53.376;-6.262;2022-07-03T12:26:41;3.78;;;0.50;;
28166;SDS011;15455;53.376;-6.262;2022-07-03T12:29:26;1.20;;;0.40;;
28166;SDS011;15455;53.376;-6.262;2022-07-03T12:32:12;3.05;;;0.40;;
28166;SDS011;15455;53.376;-6.262;2022-07-03T12:34:58;2.38;;;0.32;;
28166;SDS011;15455;53.376;-6.262;2022-07-03T12:37:44;3.25;;;0.45;;
28166;SDS011;15455;53.376;-6.262;2022-07-03T12:40:30;0.90;;;0.20;;
28166;SDS011;15455;53.376;-6.262;2022-07-03T12:43:16;2.88;;;0.80;;
28166;SDS011;15455;53.376;-6.262;2022-07-03T12:46:01;4.18;;;0.40;;
28166;SDS011;15455;53.376;-6.262;2022-07-03T12:48:53;1.77;;;0.57;;
28166;SDS011;15455;53.376;-6.262;2022-07-03T12:51:45;2.00;;;0.40;;
28166;SDS011;15455;53.376;-6.262;2022-07-03T12:54:32;2.65;;;0.47;;
28166;SDS011;15455;53.376;-6.262;2022-07-03T12:57:19;2.20;;;0.43;;
28166;SDS011;15455;53.376;-6.262;2022-07-03T13:00:25;0.32;;;0.25;;
28166;SDS011;15455;53.376;-6.262;2022-07-03T13:03:25;1.77;;;0.50;;
28166;SDS011;15455;53.376;-6.262;2022-07-03T13:06:25;2.92;;;0.60;;
28166;SDS011;15455;53.376;-6.262;2022-07-03T13:09:11;1.15;;;0.20;;
28166;SDS011;15455;53.376;-6.262;2022-07-03T13:11:57;4.47;;;0.45;;
28166;SDS011;15455;53.376;-6.262;2022-07-03T13:14:42;0.65;;;0.30;;
28166;SDS011;15455;53.376;-6.262;2022-07-03T13:20:44;1.80;;;0.30;;
28166;SDS011;15455;53.376;-6.262;2022-07-03T13:23:30;0.77;;;0.43;;
28166;SDS011;15455;53.376;-6.262;2022-07-03T13:26:15;0.55;;;0.30;;
28166;SDS011;15455;53.376;-6.262;2022-07-03T13:29:01;4.22;;;0.43;;
28166;SDS011;15455;53.376;-6.262;2022-07-03T13:31:47;2.42;;;0.30;;
28166;SDS011;15455;53.376;-6.262;2022-07-03T13:34:35;1.17;;;0.30;;
28166;SDS011;15455;53.376;-6.262;2022-07-03T13:37:20;1.40;;;0.20;;
28166;SDS011;15455;53.376;-6.262;2022-07-03T13:40:06;1.50;;;0.20;;
28166;SDS011;15455;53.376;-6.262;2022-07-03T13:42:52;0.80;;;0.30;;
28166;SDS011;15455;53.376;-6.262;2022-07-03T13:45:38;0.80;;;0.32;;
28166;SDS011;15455;53.376;-6.262;2022-07-03T13:48:23;5.35;;;0.35;;
28166;SDS011;15455;53.376;-6.262;2022-07-03T13:51:09;1.20;;;0.40;;
28166;SDS011;15455;53.376;-6.262;2022-07-03T13:53:55;3.83;;;0.40;;
28166;SDS011;15455;53.376;-6.262;2022-07-03T13:56:40;0.70;;;0.30;;
28166;SDS011;15455;53.376;-6.262;2022-07-03T13:59:26;2.55;;;0.50;;
28166;SDS011;15455;53.376;-6.262;2022-07-03T14:02:15;1.50;;;0.45;;
28166;SDS011;15455;53.376;-6.262;2022-07-03T14:05:01;0.75;;;0.30;;
28166;SDS011;15455;53.376;-6.262;2022-07-03T14:07:50;1.15;;;0.30;;
28166;SDS011;15455;53.376;-6.262;2022-07-03T14:10:35;0.93;;;0.28;;
28166;SDS011;15455;53.376;-6.262;2022-07-03T14:13:21;1.30;;;0.47;;
28166;SDS011;15455;53.376;-6.262;2022-07-03T14:16:06;1.65;;;0.50;;
28166;SDS011;15455;53.376;-6.262;2022-07-03T14:18:51;1.95;;;0.50;;
28166;SDS011;15455;53.376;-6.262;2022-07-03T14:21:37;2.75;;;0.47;;
28166;SDS011;15455;53.376;-6.262;2022-07-03T14:24:23;0.35;;;0.20;;
28166;SDS011;15455;53.376;-6.262;2022-07-03T14:27:08;5.90;;;0.30;;
28166;SDS011;15455;53.376;-6.262;2022-07-03T14:30:12;1.10;;;0.30;;
28166;SDS011;15455;53.376;-6.262;2022-07-03T14:33:16;1.45;;;0.20;;
28166;SDS011;15455;53.376;-6.262;2022-07-03T14:36:02;3.35;;;0.38;;
28166;SDS011;15455;53.376;-6.262;2022-07-03T14:38:48;0.30;;;0.25;;
28166;SDS011;15455;53.376;-6.262;2022-07-03T14:41:34;1.17;;;0.20;;
28166;SDS011;15455;53.376;-6.262;2022-07-03T14:44:20;1.65;;;0.15;;
28166;SDS011;15455;53.376;-6.262;2022-07-03T14:47:09;2.20;;;0.45;;
28166;SDS011;15455;53.376;-6.262;2022-07-03T14:49:55;1.30;;;0.45;;
28166;SDS011;15455;53.376;-6.262;2022-07-03T14:52:40;1.73;;;0.32;;
28166;SDS011;15455;53.376;-6.262;2022-07-03T14:55:32;0.35;;;0.22;;
28166;SDS011;15455;53.376;-6.262;2022-07-03T14:58:26;1.27;;;0.28;;
28166;SDS011;15455;53.376;-6.262;2022-07-03T15:01:13;1.13;;;0.50;;
28166;SDS011;15455;53.376;-6.262;2022-07-03T15:04:02;0.20;;;0.10;;
28166;SDS011;15455;53.376;-6.262;2022-07-03T15:06:48;1.27;;;0.25;;
28166;SDS011;15455;53.376;-6.262;2022-07-03T15:09:36;1.45;;;0.20;;
28166;SDS011;15455;53.376;-6.262;2022-07-03T15:12:23;0.90;;;0.30;;
28166;SDS011;15455;53.376;-6.262;2022-07-03T15:15:13;2.45;;;0.82;;
28166;SDS011;15455;53.376;-6.262;2022-07-03T15:18:01;0.75;;;0.20;;
28166;SDS011;15455;53.376;-6.262;2022-07-03T15:20:52;0.98;;;0.38;;
28166;SDS011;15455;53.376;-6.262;2022-07-03T15:23:37;0.35;;;0.13;;
28166;SDS011;15455;53.376;-6.262;2022-07-03T15:26:23;0.65;;;0.30;;
28166;SDS011;15455;53.376;-6.262;2022-07-03T15:29:10;3.08;;;0.20;;
28166;SDS011;15455;53.376;-6.262;2022-07-03T15:31:55;1.70;;;0.30;;
28166;SDS011;15455;53.376;-6.262;2022-07-03T15:34:47;0.87;;;0.33;;
28166;SDS011;15455;53.376;-6.262;2022-07-03T15:40:30;3.58;;;0.40;;
28166;SDS011;15455;53.376;-6.262;2022-07-03T15:52:18;0.38;;;0.30;;
28166;SDS011;15455;53.376;-6.262;2022-07-03T15:55:05;1.13;;;0.20;;
28166;SDS011;15455;53.376;-6.262;2022-07-03T15:57:57;0.35;;;0.10;;
28166;SDS011;15455;53.376;-6.262;2022-07-03T16:00:48;0.45;;;0.22;;
28166;SDS011;15455;53.376;-6.262;2022-07-03T16:04:40;1.92;;;0.20;;
28166;SDS011;15455;53.376;-6.262;2022-07-03T16:07:12;0.55;;;0.22;;
28166;SDS011;15455;53.376;-6.262;2022-07-03T16:10:00;0.10;;;0.10;;
28166;SDS011;15455;53.376;-6.262;2022-07-03T16:12:53;0.50;;;0.20;;
28166;SDS011;15455;53.376;-6.262;2022-07-03T16:15:39;1.75;;;0.30;;
28166;SDS011;15455;53.376;-6.262;2022-07-03T16:18:28;0.20;;;0.15;;
28166;SDS011;15455;53.376;-6.262;2022-07-03T16:21:16;2.33;;;0.40;;
28166;SDS011;15455;53.376;-6.262;2022-07-03T16:24:04;1.48;;;0.20;;
28166;SDS011;15455;53.376;-6.262;2022-07-03T16:26:52;0.47;;;0.17;;
28166;SDS011;15455;53.376;-6.262;2022-07-03T16:29:40;0.40;;;0.20;;
28166;SDS011;15455;53.376;-6.262;2022-07-03T16:32:28;1.88;;;0.38;;
28166;SDS011;15455;53.376;-6.262;2022-07-03T16:38:35;0.80;;;0.40;;
28166;SDS011;15455;53.376;-6.262;2022-07-03T16:41:26;0.30;;;0.25;;
28166;SDS011;15455;53.376;-6.262;2022-07-03T16:44:15;0.77;;;0.40;;
28166;SDS011;15455;53.376;-6.262;2022-07-03T16:47:02;1.50;;;0.30;;
28166;SDS011;15455;53.376;-6.262;2022-07-03T16:49:48;1.23;;;0.40;;
28166;SDS011;15455;53.376;-6.262;2022-07-03T16:52:40;1.95;;;0.30;;
28166;SDS011;15455;53.376;-6.262;2022-07-03T16:55:31;1.10;;;0.30;;
28166;SDS011;15455;53.376;-6.262;2022-07-03T16:58:17;4.82;;;0.43;;
28166;SDS011;15455;53.376;-6.262;2022-07-03T17:01:04;0.43;;;0.40;;
28166;SDS011;15455;53.376;-6.262;2022-07-03T17:03:51;1.00;;;0.30;;
28166;SDS011;15455;53.376;-6.262;2022-07-03T17:06:39;1.35;;;0.40;;
28166;SDS011;15455;53.376;-6.262;2022-07-03T17:09:26;0.88;;;0.22;;
28166;SDS011;15455;53.376;-6.262;2022-07-03T17:12:14;1.50;;;0.40;;
28166;SDS011;15455;53.376;-6.262;2022-07-03T17:15:03;0.65;;;0.47;;
28166;SDS011;15455;53.376;-6.262;2022-07-03T17:18:04;1.90;;;0.50;;
28166;SDS011;15455;53.376;-6.262;2022-07-03T17:20:51;5.32;;;0.40;;
28166;SDS011;15455;53.376;-6.262;2022-07-03T17:23:44;2.13;;;0.52;;
28166;SDS011;15455;53.376;-6.262;2022-07-03T17:26:32;1.90;;;0.50;;
28166;SDS011;15455;53.376;-6.262;2022-07-03T17:29:20;3.30;;;0.57;;
28166;SDS011;15455;53.376;-6.262;2022-07-03T17:32:28;3.08;;;0.50;;
28166;SDS011;15455;53.376;-6.262;2022-07-03T17:35:25;1.10;;;0.50;;
28166;SDS011;15455;53.376;-6.262;2022-07-03T17:38:14;0.30;;;0.30;;
28166;SDS011;15455;53.376;-6.262;2022-07-03T17:41:22;3.10;;;0.40;;
28166;SDS011;15455;53.376;-6.262;2022-07-03T17:44:10;0.50;;;0.40;;